Time;durP1;ratioP1;P1;durP2;ratioP2;P2;SDS_P1;SDS_P2;PMS_P1;PMS_P2;Temp;Humidity;BMP_temperature;BMP_pressure;BME280_temperature;BME280_humidity;BME280_pressure;Samples;Min_cycle;Max_cycle;Signal;HPM_P1;HPM_P2
2024/04/24 00:01:37;;;;;;;;;;;18.00;48.10;;;;;;5488591;26;19928;-70
2024/04/24 00:04:03;;;;;;;;;;;17.90;48.20;;;;;;5488364;26;19928;-70
2024/04/24 00:06:29;;;;;;;;;;;18.00;48.40;;;;;;5488853;26;19928;-70
2024/04/24 00:08:55;;;;;;;;;;;17.90;48.20;;;;;;5489050;26;20286;-70
2024/04/24 00:11:23;;;;;;;;;;;17.90;48.30;;;;;;5488537;26;19944;-70
2024/04/24 00:13:49;;;;;;;;;;;17.90;48.40;;;;;;5488878;26;20441;-69
2024/04/24 00:16:15;;;;;;;;;;;17.90;48.40;;;;;;5488600;26;19932;-70
2024/04/24 00:18:41;;;;;;;;;;;17.90;48.40;;;;;;5488500;26;19932;-70
2024/04/24 00:21:10;;;;;;;;;;;17.90;48.20;;;;;;5488761;26;19935;-70
2024/04/24 00:23:36;;;;;;;;;;;17.90;48.40;;;;;;5488194;26;19935;-70
2024/04/24 00:26:02;;;;;;;;;;;17.80;48.20;;;;;;5488655;26;19951;-70
2024/04/24 00:28:27;;;;;;;;;;;17.80;47.90;;;;;;5488288;26;20261;-70
2024/04/24 00:30:58;;;;;;;;;;;17.80;48.20;;;;;;5488235;26;19928;-70
2024/04/24 00:33:24;;;;;;;;;;;17.80;46.00;;;;;;5488267;26;19929;-70
2024/04/24 00:35:50;;;;;;;;;;;17.80;48.50;;;;;;5488339;26;19928;-70
2024/04/24 00:38:16;;;;;;;;;;;17.80;48.40;;;;;;5488261;26;19935;-70
2024/04/24 00:40:42;;;;;;;;;;;17.70;48.40;;;;;;5488526;26;19928;-70
2024/04/24 00:43:08;;;;;;;;;;;17.70;48.50;;;;;;5488708;26;19931;-70
2024/04/24 00:45:34;;;;;;;;;;;18.80;49.20;;;;;;5488467;26;19938;-70
2024/04/24 00:48:00;;;;;;;;;;;17.70;48.30;;;;;;5488102;26;19935;-70
2024/04/24 00:50:26;;;;;;;;;;;17.70;48.50;;;;;;5488242;26;19928;-70
2024/04/24 00:52:51;;;;;;;;;;;17.70;48.10;;;;;;5488483;26;19935;-70
2024/04/24 00:55:17;;;;;;;;;;;17.70;48.40;;;;;;5488075;26;19928;-70
2024/04/24 00:57:43;;;;;;;;;;;17.70;48.50;;;;;;5488127;26;19975;-70
2024/04/24 01:00:09;;;;;;;;;;;17.70;48.60;;;;;;5488176;26;19928;-70
2024/04/24 01:02:34;;;;;;;;;;;17.70;48.30;;;;;;5488108;26;20021;-70
2024/04/24 01:05:00;;;;;;;;;;;17.60;48.70;;;;;;5487467;26;19936;-70
2024/04/24 01:07:25;;;;;;;;;;;17.50;48.50;;;;;;5487443;26;19932;-70
2024/04/24 01:09:51;;;;;;;;;;;17.60;48.80;;;;;;5486093;26;19934;-70
2024/04/24 01:12:16;;;;;;;;;;;17.60;48.60;;;;;;5487817;26;19977;-70
2024/04/24 01:14:42;;;;;;;;;;;17.60;48.30;;;;;;5487664;26;19999;-70
2024/04/24 01:17:08;;;;;;;;;;;17.50;48.70;;;;;;5487264;26;19932;-70
2024/04/24 01:19:39;;;;;;;;;;;17.50;48.70;;;;;;5487395;26;19935;-70
2024/04/24 01:22:05;;;;;;;;;;;17.60;48.70;;;;;;5488062;26;19938;-70
2024/04/24 01:24:33;;;;;;;;;;;17.50;48.50;;;;;;5487004;26;19931;-70
2024/04/24 01:26:58;;;;;;;;;;;17.50;48.60;;;;;;5485170;26;19940;-70
2024/04/24 01:29:24;;;;;;;;;;;17.50;48.80;;;;;;5485591;26;19928;-70
2024/04/24 01:31:49;;;;;;;;;;;17.50;48.80;;;;;;5487318;26;20035;-70
2024/04/24 01:34:15;;;;;;;;;;;17.40;48.80;;;;;;5487096;26;19939;-70
2024/04/24 01:36:40;;;;;;;;;;;17.50;48.90;;;;;;5487189;26;19927;-70
2024/04/24 01:39:06;;;;;;;;;;;17.40;48.80;;;;;;5486923;26;19928;-70
2024/04/24 01:41:31;;;;;;;;;;;17.40;48.80;;;;;;5487089;26;19928;-70
2024/04/24 01:43:57;;;;;;;;;;;17.50;48.90;;;;;;5487254;26;19934;-70
2024/04/24 01:46:22;;;;;;;;;;;17.40;48.90;;;;;;5487232;26;20375;-70
2024/04/24 01:48:48;;;;;;;;;;;17.40;48.80;;;;;;5489213;26;19935;-70
2024/04/24 01:51:13;;;;;;;;;;;17.40;48.90;;;;;;5491160;26;19948;-70
2024/04/24 01:53:39;;;;;;;;;;;17.40;48.90;;;;;;5490592;26;19932;-70
2024/04/24 01:56:04;;;;;;;;;;;17.40;48.90;;;;;;5490528;26;19981;-70
2024/04/24 01:58:30;;;;;;;;;;;17.40;48.60;;;;;;5490339;26;19931;-70
2024/04/24 02:00:55;;;;;;;;;;;17.30;48.90;;;;;;5490331;26;19928;-70
2024/04/24 02:03:21;;;;;;;;;;;17.40;48.40;;;;;;5490167;26;20012;-70
2024/04/24 02:05:46;;;;;;;;;;;17.30;49.00;;;;;;5490442;26;19928;-70
2024/04/24 02:08:12;;;;;;;;;;;17.30;48.50;;;;;;5490615;26;19940;-70
2024/04/24 02:10:38;;;;;;;;;;;17.30;48.90;;;;;;5490261;26;19928;-70
2024/04/24 02:13:04;;;;;;;;;;;17.30;48.70;;;;;;5490333;26;19934;-70
2024/04/24 02:15:29;;;;;;;;;;;17.20;49.00;;;;;;5490793;26;19928;-70
2024/04/24 02:18:01;;;;;;;;;;;17.30;49.00;;;;;;5491194;26;19928;-70
2024/04/24 02:20:27;;;;;;;;;;;17.20;49.00;;;;;;5490900;26;19928;-70
2024/04/24 02:22:52;;;;;;;;;;;17.30;48.90;;;;;;5490526;26;20415;-70
2024/04/24 02:25:33;;;;;;;;;;;17.20;49.10;;;;;;5490123;26;19996;-70
2024/04/24 02:27:59;;;;;;;;;;;17.20;47.00;;;;;;5490372;26;20039;-70
2024/04/24 02:30:25;;;;;;;;;;;17.30;48.40;;;;;;5490456;26;19991;-70
2024/04/24 02:32:50;;;;;;;;;;;17.20;48.90;;;;;;5490453;26;19936;-70
2024/04/24 02:35:16;;;;;;;;;;;17.20;49.00;;;;;;5490305;26;20343;-69
2024/04/24 02:37:41;;;;;;;;;;;17.20;49.10;;;;;;5490299;26;20346;-70
2024/04/24 02:40:07;;;;;;;;;;;17.10;49.00;;;;;;5490032;26;20315;-69
2024/04/24 02:42:34;;;;;;;;;;;17.10;48.60;;;;;;5490042;26;19928;-70
2024/04/24 02:44:59;;;;;;;;;;;17.10;49.60;;;;;;5489345;26;19928;-70
2024/04/24 02:47:24;;;;;;;;;;;17.10;48.90;;;;;;5490159;26;19934;-70
2024/04/24 02:49:50;;;;;;;;;;;17.10;49.20;;;;;;5489669;26;19928;-70
2024/04/24 02:52:15;;;;;;;;;;;17.10;49.00;;;;;;5489681;26;19936;-70
2024/04/24 02:54:41;;;;;;;;;;;17.10;48.90;;;;;;5489711;26;19956;-70
2024/04/24 02:57:06;;;;;;;;;;;17.10;48.80;;;;;;5489883;26;20132;-70
2024/04/24 02:59:32;;;;;;;;;;;17.10;48.90;;;;;;5488426;26;20262;-75
2024/04/24 03:01:57;;;;;;;;;;;17.20;48.70;;;;;;5489668;26;19935;-75
2024/04/24 03:04:23;;;;;;;;;;;17.00;48.90;;;;;;5489379;26;20271;-75
2024/04/24 03:06:48;;;;;;;;;;;17.00;48.90;;;;;;5489658;26;19934;-75
2024/04/24 03:09:14;;;;;;;;;;;17.10;48.70;;;;;;5489355;26;20411;-75
2024/04/24 03:11:39;;;;;;;;;;;17.20;48.80;;;;;;5489580;26;20067;-75
2024/04/24 03:14:05;;;;;;;;;;;17.00;48.60;;;;;;5489557;26;19928;-75
2024/04/24 03:16:31;;;;;;;;;;;17.10;48.30;;;;;;5489698;26;19935;-75
2024/04/24 03:18:57;;;;;;;;;;;17.00;48.80;;;;;;5489403;26;19928;-75
2024/04/24 03:21:23;;;;;;;;;;;17.00;48.80;;;;;;5489185;26;19927;-75
2024/04/24 03:23:48;;;;;;;;;;;17.00;48.40;;;;;;5489312;26;19928;-75
2024/04/24 03:26:14;;;;;;;;;;;17.00;48.60;;;;;;5487490;26;19935;-75
2024/04/24 03:28:39;;;;;;;;;;;16.90;48.70;;;;;;5488981;26;19935;-75
2024/04/24 03:31:05;;;;;;;;;;;16.90;48.70;;;;;;5489095;26;19936;-75
2024/04/24 03:33:30;;;;;;;;;;;16.50;49.20;;;;;;5489209;26;19940;-75
2024/04/24 03:35:56;;;;;;;;;;;16.90;48.70;;;;;;5489199;26;19928;-75
2024/04/24 03:38:21;;;;;;;;;;;16.90;48.70;;;;;;5488853;26;20354;-75
2024/04/24 03:40:47;;;;;;;;;;;16.90;48.60;;;;;;5489109;26;19971;-75
2024/04/24 03:43:13;;;;;;;;;;;16.90;47.90;;;;;;5489339;26;19928;-75
2024/04/24 03:45:38;;;;;;;;;;;16.50;49.30;;;;;;5488811;26;19928;-75
2024/04/24 03:48:04;;;;;;;;;;;16.80;48.80;;;;;;5489080;26;20262;-75
2024/04/24 03:50:29;;;;;;;;;;;16.80;48.80;;;;;;5487381;26;20329;-75
2024/04/24 03:52:55;;;;;;;;;;;16.80;49.00;;;;;;5488695;26;20274;-75
2024/04/24 03:55:20;;;;;;;;;;;16.80;48.90;;;;;;5488624;26;19928;-75
2024/04/24 03:57:46;;;;;;;;;;;16.70;48.40;;;;;;5488511;26;19939;-74
2024/04/24 04:00:11;;;;;;;;;;;16.70;49.00;;;;;;5488629;26;19928;-75
2024/04/24 04:02:37;;;;;;;;;;;16.80;48.60;;;;;;5488379;26;19935;-75
2024/04/24 04:05:02;;;;;;;;;;;16.80;49.10;;;;;;5488745;26;19995;-75
2024/04/24 04:07:28;;;;;;;;;;;16.70;48.70;;;;;;5488535;26;19932;-75
2024/04/24 04:09:53;;;;;;;;;;;16.70;49.20;;;;;;5486503;26;19928;-75
2024/04/24 04:12:19;;;;;;;;;;;16.70;49.10;;;;;;5489414;26;20262;-75
2024/04/24 04:14:46;;;;;;;;;;;16.70;47.70;;;;;;5487890;26;20234;-75
2024/04/24 04:17:12;;;;;;;;;;;16.70;48.90;;;;;;5488524;26;20431;-75
2024/04/24 04:19:37;;;;;;;;;;;16.60;49.20;;;;;;5488616;26;19935;-74
2024/04/24 04:22:03;;;;;;;;;;;16.60;49.10;;;;;;5488346;26;19927;-75
2024/04/24 04:24:28;;;;;;;;;;;16.60;49.00;;;;;;5488152;26;19940;-75
2024/04/24 04:26:54;;;;;;;;;;;16.60;49.20;;;;;;5488112;26;19928;-75
2024/04/24 04:29:19;;;;;;;;;;;16.60;49.10;;;;;;5488033;26;20262;-75
2024/04/24 04:31:45;;;;;;;;;;;16.60;49.00;;;;;;5488318;26;19928;-75
2024/04/24 04:34:10;;;;;;;;;;;16.60;49.30;;;;;;5487778;26;19956;-74
2024/04/24 04:36:35;;;;;;;;;;;16.60;49.00;;;;;;5487589;26;19968;-75
2024/04/24 04:39:01;;;;;;;;;;;16.60;49.20;;;;;;5487690;26;19928;-75
2024/04/24 04:41:27;;;;;;;;;;;16.50;49.00;;;;;;5488194;26;19936;-75
2024/04/24 04:43:54;;;;;;;;;;;16.50;48.80;;;;;;5487940;26;20363;-75
2024/04/24 04:46:20;;;;;;;;;;;16.50;49.10;;;;;;5486106;26;19939;-75
2024/04/24 04:48:45;;;;;;;;;;;16.50;49.00;;;;;;5487689;26;20391;-75
2024/04/24 04:51:14;;;;;;;;;;;16.50;49.10;;;;;;5487467;26;19964;-75
2024/04/24 04:53:40;;;;;;;;;;;17.00;47.20;;;;;;5487733;26;19961;-75
2024/04/24 04:56:06;;;;;;;;;;;16.40;49.00;;;;;;5487842;26;20266;-75
2024/04/24 04:58:31;;;;;;;;;;;16.40;49.00;;;;;;5487975;26;19993;-75
2024/04/24 05:00:56;;;;;;;;;;;16.40;49.20;;;;;;5487563;26;20136;-75
2024/04/24 05:03:22;;;;;;;;;;;16.50;48.10;;;;;;5487086;26;19927;-75
2024/04/24 05:05:47;;;;;;;;;;;16.40;49.50;;;;;;5487633;26;19960;-74
2024/04/24 05:08:13;;;;;;;;;;;16.40;49.10;;;;;;5487673;26;19935;-75
2024/04/24 05:10:38;;;;;;;;;;;16.40;49.20;;;;;;5488036;26;19928;-75
2024/04/24 05:13:08;;;;;;;;;;;16.50;49.50;;;;;;5487352;26;19996;-75
2024/04/24 05:15:34;;;;;;;;;;;16.40;49.20;;;;;;5487727;26;19961;-75
2024/04/24 05:18:00;;;;;;;;;;;16.30;49.30;;;;;;5487421;26;19928;-75
2024/04/24 05:20:25;;;;;;;;;;;16.40;49.10;;;;;;5487664;26;19935;-75
2024/04/24 05:22:58;;;;;;;;;;;16.30;49.20;;;;;;5486050;26;19935;-74
2024/04/24 05:25:25;;;;;;;;;;;16.30;49.30;;;;;;5487431;26;19939;-75
2024/04/24 05:30:34;;;;;;;;;;;16.30;47.40;;;;;;5486978;26;19935;-74
2024/04/24 05:33:01;;;;;;;;;;;16.30;49.30;;;;;;5487319;26;19939;-75
2024/04/24 05:35:27;;;;;;;;;;;16.30;49.20;;;;;;5487191;26;19956;-75
2024/04/24 05:37:52;;;;;;;;;;;16.30;49.30;;;;;;5487713;26;19928;-75
2024/04/24 05:40:18;;;;;;;;;;;16.30;49.40;;;;;;5487076;26;20262;-76
2024/04/24 05:42:43;;;;;;;;;;;16.30;49.40;;;;;;5487505;26;19996;-74
2024/04/24 05:45:09;;;;;;;;;;;16.30;49.20;;;;;;5490854;26;19928;-74
2024/04/24 05:47:34;;;;;;;;;;;16.20;49.60;;;;;;5487092;26;19965;-73
2024/04/24 05:50:00;;;;;;;;;;;16.20;49.40;;;;;;5485285;26;20359;-75
2024/04/24 05:52:25;;;;;;;;;;;16.20;49.10;;;;;;5487064;26;20062;-74
2024/04/24 05:54:51;;;;;;;;;;;16.20;49.60;;;;;;5486986;26;20476;-75
2024/04/24 05:57:17;;;;;;;;;;;16.20;49.40;;;;;;5486988;26;20284;-74
2024/04/24 05:59:42;;;;;;;;;;;16.30;49.40;;;;;;5486468;26;19928;-72
2024/04/24 06:02:08;;;;;;;;;;;16.30;49.00;;;;;;5486728;26;19936;-73
2024/04/24 06:04:34;;;;;;;;;;;16.20;49.50;;;;;;5486249;26;19940;-74
2024/04/24 06:07:00;;;;;;;;;;;16.30;49.80;;;;;;5486156;26;19932;-73
2024/04/24 06:09:25;;;;;;;;;;;16.20;49.70;;;;;;5486341;26;20008;-70
2024/04/24 06:11:51;;;;;;;;;;;16.20;49.50;;;;;;5486426;26;19963;-71
2024/04/24 06:14:16;;;;;;;;;;;16.20;49.50;;;;;;5486094;26;20275;-71
2024/04/24 06:16:44;;;;;;;;;;;16.20;49.70;;;;;;5486045;26;19983;-71
2024/04/24 06:19:10;;;;;;;;;;;16.20;49.50;;;;;;5486411;26;19964;-71
2024/04/24 06:21:35;;;;;;;;;;;16.20;49.40;;;;;;5484373;26;19935;-71
2024/04/24 06:24:01;;;;;;;;;;;16.20;49.50;;;;;;5486735;26;20568;-76
2024/04/24 06:26:26;;;;;;;;;;;16.30;49.90;;;;;;5484009;26;19936;-76
2024/04/24 06:28:51;;;;;;;;;;;16.20;49.80;;;;;;5484073;26;19935;-76
2024/04/24 06:31:17;;;;;;;;;;;16.20;49.70;;;;;;5486194;26;19932;-76
2024/04/24 06:33:43;;;;;;;;;;;16.20;49.50;;;;;;5485425;26;19935;-75
2024/04/24 06:36:08;;;;;;;;;;;16.20;49.80;;;;;;5489618;26;20322;-76
2024/04/24 06:38:34;;;;;;;;;;;16.20;48.70;;;;;;5489944;26;19928;-71
2024/04/24 06:41:00;;;;;;;;;;;16.20;49.60;;;;;;5489460;26;20377;-71
2024/04/24 06:43:26;;;;;;;;;;;16.30;49.60;;;;;;5489508;26;19928;-71
2024/04/24 06:45:52;;;;;;;;;;;16.30;49.70;;;;;;5489498;26;19939;-73
2024/04/24 06:48:17;;;;;;;;;;;16.20;49.90;;;;;;5487790;26;19990;-70
2024/04/24 06:50:42;;;;;;;;;;;16.20;49.70;;;;;;5489358;26;19928;-70
2024/04/24 06:53:08;;;;;;;;;;;16.30;49.90;;;;;;5489547;26;19932;-71
2024/04/24 06:55:36;;;;;;;;;;;16.20;49.80;;;;;;5489751;26;19939;-71
2024/04/24 06:58:02;;;;;;;;;;;16.20;50.00;;;;;;5489569;26;19962;-70
2024/04/24 07:00:30;;;;;;;;;;;16.20;49.80;;;;;;5489148;26;19932;-70
2024/04/24 07:02:56;;;;;;;;;;;16.30;49.40;;;;;;5489313;26;19931;-70
2024/04/24 07:05:21;;;;;;;;;;;16.20;50.10;;;;;;5489888;26;20260;-71
2024/04/24 07:07:47;;;;;;;;;;;16.20;50.10;;;;;;5489932;26;19934;-72
2024/04/24 07:10:12;;;;;;;;;;;16.20;50.10;;;;;;5489596;26;19939;-72
2024/04/24 07:12:37;;;;;;;;;;;16.20;50.10;;;;;;5489407;26;20052;-71
2024/04/24 07:15:03;;;;;;;;;;;16.20;50.00;;;;;;5489379;26;20277;-73
2024/04/24 07:17:28;;;;;;;;;;;16.10;49.90;;;;;;5489596;26;19960;-72
2024/04/24 07:19:54;;;;;;;;;;;16.10;50.30;;;;;;5489733;26;20290;-72
2024/04/24 07:22:20;;;;;;;;;;;16.20;50.10;;;;;;5489282;26;19976;-75
2024/04/24 07:24:46;;;;;;;;;;;16.20;50.20;;;;;;5489258;26;19995;-72
2024/04/24 07:27:11;;;;;;;;;;;16.20;50.10;;;;;;5487397;26;19928;-72
2024/04/24 07:29:37;;;;;;;;;;;16.20;50.00;;;;;;5489097;26;19928;-73
2024/04/24 07:32:02;;;;;;;;;;;16.30;50.40;;;;;;5489500;26;19928;-72
2024/04/24 07:34:28;;;;;;;;;;;15.90;49.50;;;;;;5489156;26;20331;-72
2024/04/24 07:36:54;;;;;;;;;;;16.20;50.10;;;;;;5488810;26;19928;-72
2024/04/24 07:39:20;;;;;;;;;;;16.20;50.20;;;;;;5489222;26;19995;-73
2024/04/24 07:41:46;;;;;;;;;;;16.10;50.30;;;;;;5491043;26;19940;-72
2024/04/24 07:44:12;;;;;;;;;;;16.20;50.00;;;;;;5489833;26;19935;-70
2024/04/24 07:46:38;;;;;;;;;;;16.20;50.30;;;;;;5488788;26;19928;-69
2024/04/24 07:49:04;;;;;;;;;;;16.20;50.10;;;;;;5489078;26;20029;-71
2024/04/24 07:51:29;;;;;;;;;;;16.10;50.30;;;;;;5489218;26;19996;-70
2024/04/24 07:53:55;;;;;;;;;;;16.10;50.20;;;;;;5489247;26;19995;-73
2024/04/24 07:56:21;;;;;;;;;;;16.60;50.70;;;;;;5488862;26;19950;-70
2024/04/24 07:58:47;;;;;;;;;;;16.20;50.30;;;;;;5488987;26;20323;-73
2024/04/24 08:01:12;;;;;;;;;;;16.20;50.40;;;;;;5488909;26;19940;-72
2024/04/24 08:03:38;;;;;;;;;;;16.20;50.10;;;;;;5486775;26;19935;-72
2024/04/24 08:06:05;;;;;;;;;;;16.10;50.50;;;;;;5489089;26;19971;-71
2024/04/24 08:08:31;;;;;;;;;;;16.10;49.80;;;;;;5489289;26;19928;-71
2024/04/24 08:10:56;;;;;;;;;;;16.10;50.70;;;;;;5488940;26;20363;-70
2024/04/24 08:13:22;;;;;;;;;;;16.20;50.70;;;;;;5488604;26;19939;-70
2024/04/24 08:15:48;;;;;;;;;;;16.20;50.50;;;;;;5489059;26;19996;-70
2024/04/24 08:18:14;;;;;;;;;;;16.20;50.70;;;;;;5488850;26;20257;-69
2024/04/24 08:20:40;;;;;;;;;;;16.20;50.70;;;;;;5490477;26;19928;-71
2024/04/24 08:23:07;;;;;;;;;;;16.20;50.90;;;;;;5488152;26;20018;-70
2024/04/24 08:25:32;;;;;;;;;;;16.20;50.90;;;;;;5488857;26;20026;-70
2024/04/24 08:27:58;;;;;;;;;;;16.20;51.00;;;;;;5488989;26;20263;-72
2024/04/24 08:30:24;;;;;;;;;;;16.30;51.30;;;;;;5488746;26;20365;-71
2024/04/24 08:32:49;;;;;;;;;;;16.30;51.20;;;;;;5488737;26;19928;-71
2024/04/24 08:35:15;;;;;;;;;;;16.30;51.30;;;;;;5488609;26;19934;-71
2024/04/24 08:37:40;;;;;;;;;;;16.30;51.60;;;;;;5486862;26;19939;-71
2024/04/24 08:40:06;;;;;;;;;;;16.40;51.50;;;;;;5488536;26;20375;-71
2024/04/24 08:42:32;;;;;;;;;;;16.40;51.10;;;;;;5488103;26;19935;-71
2024/04/24 08:44:58;;;;;;;;;;;16.40;51.80;;;;;;5488897;26;19936;-71
2024/04/24 08:47:24;;;;;;;;;;;16.20;52.60;;;;;;5488152;26;19935;-71
2024/04/24 08:49:50;;;;;;;;;;;16.40;52.80;;;;;;5488211;26;19928;-72
2024/04/24 08:52:16;;;;;;;;;;;16.50;52.60;;;;;;5488098;26;19928;-72
2024/04/24 08:54:43;;;;;;;;;;;16.60;52.90;;;;;;5488303;26;19928;-72
2024/04/24 08:57:10;;;;;;;;;;;16.60;52.90;;;;;;5488410;26;19928;-71
2024/04/24 08:59:40;;;;;;;;;;;16.60;53.10;;;;;;5488255;26;19956;-72
2024/04/24 09:02:07;;;;;;;;;;;16.80;52.30;;;;;;5487723;26;20250;-72
2024/04/24 09:04:34;;;;;;;;;;;16.70;53.00;;;;;;5487857;26;19928;-72
2024/04/24 09:07:00;;;;;;;;;;;16.70;52.90;;;;;;5488185;26;19936;-72
2024/04/24 09:09:26;;;;;;;;;;;16.80;52.70;;;;;;5488096;26;19939;-72
2024/04/24 09:11:52;;;;;;;;;;;16.90;52.90;;;;;;5488477;26;19928;-72
2024/04/24 09:14:18;;;;;;;;;;;16.90;52.70;;;;;;5487946;26;19996;-72
2024/04/24 09:16:44;;;;;;;;;;;16.80;52.50;;;;;;5488021;26;19962;-72
2024/04/24 09:19:09;;;;;;;;;;;17.00;52.80;;;;;;5486138;26;19928;-72
2024/04/24 09:21:35;;;;;;;;;;;17.00;52.50;;;;;;5487692;26;19928;-72
2024/04/24 09:24:00;;;;;;;;;;;17.10;52.60;;;;;;5487615;26;19973;-72
2024/04/24 09:26:26;;;;;;;;;;;17.20;52.40;;;;;;5487726;26;19996;-72
2024/04/24 09:28:51;;;;;;;;;;;17.30;52.70;;;;;;5487545;26;19935;-75
2024/04/24 09:31:17;;;;;;;;;;;17.30;52.40;;;;;;5487414;26;19936;-72
2024/04/24 09:33:43;;;;;;;;;;;17.40;52.10;;;;;;5487697;26;20354;-73
2024/04/24 09:36:08;;;;;;;;;;;17.40;52.40;;;;;;5487066;26;19928;-71
2024/04/24 09:38:34;;;;;;;;;;;17.50;52.40;;;;;;5487147;26;19939;-71
2024/04/24 09:41:00;;;;;;;;;;;17.50;52.40;;;;;;5487879;26;19931;-73
2024/04/24 09:43:26;;;;;;;;;;;17.60;52.30;;;;;;5487152;26;19960;-72
2024/04/24 09:45:52;;;;;;;;;;;17.70;52.20;;;;;;5486917;26;19936;-72
2024/04/24 09:48:18;;;;;;;;;;;17.80;52.40;;;;;;5487080;26;19928;-72
2024/04/24 09:50:44;;;;;;;;;;;17.80;52.10;;;;;;5487073;26;19935;-72
2024/04/24 09:53:14;;;;;;;;;;;17.80;52.30;;;;;;5487311;26;20508;-72
2024/04/24 09:55:42;;;;;;;;;;;17.80;52.10;;;;;;5487516;26;19979;-72
2024/04/24 09:58:10;;;;;;;;;;;17.80;52.40;;;;;;5487281;26;19999;-72
2024/04/24 10:00:36;;;;;;;;;;;17.80;52.80;;;;;;5487233;26;19951;-72
2024/04/24 10:03:04;;;;;;;;;;;17.90;52.30;;;;;;5487246;26;19934;-73
2024/04/24 10:05:30;;;;;;;;;;;17.80;52.80;;;;;;5487629;26;19928;-71
2024/04/24 10:08:00;;;;;;;;;;;17.80;53.00;;;;;;5487459;26;20254;-71
2024/04/24 10:10:34;;;;;;;;;;;17.80;53.20;;;;;;5491875;26;19938;-74
2024/04/24 10:13:01;;;;;;;;;;;17.80;51.00;;;;;;5490652;26;19996;-74
2024/04/24 10:15:30;;;;;;;;;;;17.80;53.40;;;;;;5491097;26;19931;-73
2024/04/24 10:17:56;;;;;;;;;;;17.80;53.30;;;;;;5490807;26;19931;-74
2024/04/24 10:20:22;;;;;;;;;;;17.80;53.50;;;;;;5490876;26;19939;-74
2024/04/24 10:22:48;;;;;;;;;;;17.80;53.10;;;;;;5490656;26;19939;-75
2024/04/24 10:25:15;;;;;;;;;;;17.80;54.10;;;;;;5490746;26;19940;-74
2024/04/24 10:27:44;;;;;;;;;;;18.00;53.30;;;;;;5490864;26;19935;-73
2024/04/24 10:30:11;;;;;;;;;;;18.00;53.10;;;;;;5490770;26;19935;-74
2024/04/24 10:32:36;;;;;;;;;;;18.10;52.40;;;;;;5490412;26;19951;-74
2024/04/24 10:35:02;;;;;;;;;;;18.10;52.70;;;;;;5490614;26;19939;-74
2024/04/24 10:37:27;;;;;;;;;;;18.20;52.70;;;;;;5490793;26;19928;-75
2024/04/24 10:39:54;;;;;;;;;;;18.70;52.80;;;;;;5490605;26;20371;-76
2024/04/24 10:42:20;;;;;;;;;;;18.40;52.40;;;;;;5488661;26;19928;-75
2024/04/24 10:44:46;;;;;;;;;;;18.50;52.00;;;;;;5488351;26;20266;-76
2024/04/24 10:47:15;;;;;;;;;;;18.60;51.80;;;;;;5490398;26;19932;-76
2024/04/24 10:49:51;;;;;;;;;;;18.50;48.80;;;;;;5490695;26;20102;-75
2024/04/24 10:52:16;;;;;;;;;;;18.80;51.30;;;;;;5490732;26;19936;-78
2024/04/24 10:54:42;;;;;;;;;;;18.90;51.20;;;;;;5490236;26;19996;-76
2024/04/24 10:57:07;;;;;;;;;;;19.10;51.00;;;;;;5490403;26;19960;-74
2024/04/24 10:59:34;;;;;;;;;;;19.00;51.00;;;;;;5490253;26;19934;-74
2024/04/24 11:02:26;;;;;;;;;;;19.10;50.80;;;;;;5490061;26;19928;-75
2024/04/24 11:04:51;;;;;;;;;;;18.90;48.50;;;;;;5484637;26;19932;-75
2024/04/24 11:07:17;;;;;;;;;;;19.10;51.70;;;;;;5490550;26;19928;-72
2024/04/24 11:09:43;;;;;;;;;;;18.90;51.40;;;;;;5490398;26;20373;-73
2024/04/24 11:12:10;;;;;;;;;;;20.50;52.50;;;;;;5490116;26;19932;-73
2024/04/24 11:14:41;;;;;;;;;;;19.00;51.60;;;;;;5490354;26;20043;-74
2024/04/24 11:17:07;;;;;;;;;;;19.00;49.00;;;;;;5490365;26;19964;-74
2024/04/24 11:19:33;;;;;;;;;;;18.90;51.70;;;;;;5489955;26;19935;-76
2024/04/24 11:21:58;;;;;;;;;;;18.80;52.00;;;;;;5489555;26;20238;-75
2024/04/24 11:24:31;;;;;;;;;;;18.80;51.90;;;;;;5490362;26;19940;-75
2024/04/24 11:26:56;;;;;;;;;;;18.80;49.40;;;;;;5490189;26;19935;-75
2024/04/24 11:29:22;;;;;;;;;;;18.80;52.40;;;;;;5489909;26;19939;-73
2024/04/24 11:31:48;;;;;;;;;;;18.90;52.20;;;;;;5490198;26;19928;-75
2024/04/24 11:34:14;;;;;;;;;;;19.00;52.20;;;;;;5489909;26;20524;-77
2024/04/24 11:36:40;;;;;;;;;;;18.90;51.90;;;;;;5489832;26;19932;-76
2024/04/24 11:39:06;;;;;;;;;;;19.10;51.90;;;;;;5489471;26;19973;-76
2024/04/24 11:41:36;;;;;;;;;;;19.30;51.50;;;;;;5489512;26;19928;-76
2024/04/24 11:44:03;;;;;;;;;;;19.40;51.20;;;;;;5489828;26;19931;-76
2024/04/24 11:46:29;;;;;;;;;;;19.60;50.80;;;;;;5489559;26;20315;-76
2024/04/24 11:48:55;;;;;;;;;;;19.70;50.50;;;;;;5489912;26;19940;-76
2024/04/24 11:51:21;;;;;;;;;;;19.90;50.40;;;;;;5489892;26;20255;-76
2024/04/24 11:53:48;;;;;;;;;;;19.90;50.20;;;;;;5490075;26;20265;-76
2024/04/24 11:56:13;;;;;;;;;;;19.80;50.20;;;;;;5489699;26;19955;-76
2024/04/24 11:58:39;;;;;;;;;;;19.80;50.30;;;;;;5490056;26;19934;-76
2024/04/24 12:01:05;;;;;;;;;;;19.70;50.70;;;;;;5489888;26;19939;-76
2024/04/24 12:03:31;;;;;;;;;;;19.70;50.50;;;;;;5489366;26;19932;-77
2024/04/24 12:06:00;;;;;;;;;;;19.50;51.00;;;;;;5489233;26;20374;-76
2024/04/24 12:08:26;;;;;;;;;;;19.50;48.80;;;;;;5489077;26;20326;-76
2024/04/24 12:10:58;;;;;;;;;;;19.70;51.00;;;;;;5489889;26;19939;-76
2024/04/24 12:13:24;;;;;;;;;;;19.60;48.70;;;;;;5489233;26;20354;-76
2024/04/24 12:15:56;;;;;;;;;;;19.60;51.20;;;;;;5489296;26;19935;-76
2024/04/24 12:18:22;;;;;;;;;;;19.40;48.60;;;;;;5489157;26;19953;-76
2024/04/24 12:20:47;;;;;;;;;;;19.50;51.50;;;;;;5489013;26;19932;-76
2024/04/24 12:23:13;;;;;;;;;;;19.60;51.40;;;;;;5489156;26;19928;-76
2024/04/24 12:25:38;;;;;;;;;;;19.70;51.40;;;;;;5488721;26;19928;-76
2024/04/24 12:28:04;;;;;;;;;;;19.90;50.90;;;;;;5489057;26;19977;-76
2024/04/24 12:30:30;;;;;;;;;;;19.90;49.90;;;;;;5487314;26;19931;-76
2024/04/24 12:32:55;;;;;;;;;;;19.90;50.50;;;;;;5486793;26;20355;-76
2024/04/24 12:35:20;;;;;;;;;;;19.90;50.80;;;;;;5488889;26;19971;-76
2024/04/24 12:37:46;;;;;;;;;;;19.80;50.70;;;;;;5488584;26;19996;-77
2024/04/24 12:40:13;;;;;;;;;;;19.70;51.70;;;;;;5489178;26;19929;-71
2024/04/24 12:42:40;;;;;;;;;;;19.70;51.00;;;;;;5487127;26;19978;-70
2024/04/24 12:45:07;;;;;;;;;;;19.60;51.40;;;;;;5488736;26;19928;-70
2024/04/24 12:47:32;;;;;;;;;;;19.60;51.00;;;;;;5488848;26;19932;-70
2024/04/24 12:49:58;;;;;;;;;;;19.50;51.50;;;;;;5488325;26;19928;-71
2024/04/24 12:52:23;;;;;;;;;;;19.60;51.80;;;;;;5488737;26;19928;-70
2024/04/24 12:54:49;;;;;;;;;;;19.50;51.80;;;;;;5488638;26;19927;-70
2024/04/24 12:57:15;;;;;;;;;;;19.50;51.60;;;;;;5487964;26;20393;-70
2024/04/24 12:59:41;;;;;;;;;;;19.70;51.20;;;;;;5488509;26;19955;-71
2024/04/24 13:02:06;;;;;;;;;;;20.10;50.00;;;;;;5488264;26;19938;-71
2024/04/24 13:04:32;;;;;;;;;;;20.00;50.20;;;;;;5487848;26;19939;-72
2024/04/24 13:06:57;;;;;;;;;;;20.30;50.00;;;;;;5488234;26;19957;-71
2024/04/24 13:09:23;;;;;;;;;;;20.40;49.70;;;;;;5488646;26;20003;-70
2024/04/24 13:11:49;;;;;;;;;;;20.50;49.20;;;;;;5487947;26;19964;-72
2024/04/24 13:14:14;;;;;;;;;;;20.60;48.80;;;;;;5488125;26;20255;-71
2024/04/24 13:16:40;;;;;;;;;;;20.70;49.00;;;;;;5488019;26;20012;-71
2024/04/24 13:19:05;;;;;;;;;;;20.90;48.20;;;;;;5488059;26;19928;-71
2024/04/24 13:21:31;;;;;;;;;;;20.90;48.20;;;;;;5487763;26;19936;-71
2024/04/24 13:23:56;;;;;;;;;;;21.00;48.10;;;;;;5487640;26;19940;-71
2024/04/24 13:26:22;;;;;;;;;;;20.90;48.00;;;;;;5488053;26;20365;-71
2024/04/24 13:28:47;;;;;;;;;;;20.80;48.30;;;;;;5487973;26;19995;-71
2024/04/24 13:31:13;;;;;;;;;;;20.70;48.40;;;;;;5487652;26;20409;-70
2024/04/24 13:33:39;;;;;;;;;;;20.60;48.80;;;;;;5487765;26;19939;-71
2024/04/24 13:36:05;;;;;;;;;;;20.90;49.20;;;;;;5487514;26;20578;-72
2024/04/24 13:38:31;;;;;;;;;;;20.80;48.80;;;;;;5487905;26;19928;-71
2024/04/24 13:41:03;;;;;;;;;;;20.70;48.60;;;;;;5487391;26;20001;-72
2024/04/24 13:43:29;;;;;;;;;;;20.70;46.10;;;;;;5488269;26;19936;-73
2024/04/24 13:45:55;;;;;;;;;;;20.60;49.10;;;;;;5490966;26;20079;-73
2024/04/24 13:48:20;;;;;;;;;;;20.50;49.20;;;;;;5489280;26;20234;-73
2024/04/24 13:50:45;;;;;;;;;;;20.50;49.30;;;;;;5488918;26;19934;-72
2024/04/24 13:53:11;;;;;;;;;;;20.30;49.50;;;;;;5491200;26;19944;-73
2024/04/24 13:55:37;;;;;;;;;;;20.50;49.60;;;;;;5489296;26;19959;-73
2024/04/24 13:58:02;;;;;;;;;;;20.50;49.20;;;;;;5491286;26;19928;-72
2024/04/24 14:00:28;;;;;;;;;;;20.70;49.10;;;;;;5490637;26;19928;-72
2024/04/24 14:02:53;;;;;;;;;;;20.80;48.40;;;;;;5488751;26;20003;-72
2024/04/24 14:05:22;;;;;;;;;;;20.80;48.80;;;;;;5491058;26;20481;-72
2024/04/24 14:07:48;;;;;;;;;;;20.60;47.90;;;;;;5490868;26;20254;-72
2024/04/24 14:10:14;;;;;;;;;;;21.10;48.20;;;;;;5490986;26;20208;-72
2024/04/24 14:12:39;;;;;;;;;;;21.10;48.40;;;;;;5490841;26;19969;-73